< < Back
Terminal Aerodrome Forecast


Current Version              Previous Versions:   1  2  3  4  5  6  7  8  9  

Terminal Aerodrome Forecast

799
FTUS42 KTAE 232300
TAFTLH
TAF
KTLH 232320Z 2400/2424 26003KT P6SM SCT100
      TEMPO 2410/2413 3SM BR FEW004
     FM241500 23010KT P6SM SCT035 SCT100=



Latest METAR

467
SAUS80 KWBC 240300 RRF
MTRTLH
METAR KTLH 240353Z AUTO 00000KT 10SM CLR 25/22 A3003 RMK AO2 SLP169
T02500222 $


USA.gov is the U.S. government's official web portal to all federal, state and local government web resources and services.